< < Back
Terminal Aerodrome Forecast


Current Version              Previous Versions:   1  2  3  4  5  6  7  8  9  

Terminal Aerodrome Forecast

292
FTUS42 KCHS 010536
TAFSAV
TAF
KSAV 010536Z 0106/0206 03009KT P6SM -RA OVC015
     FM011000 03009KT 6SM -RA BR OVC008
     FM011500 36006KT 5SM -DZ BR OVC006
     FM020000 36003KT 3SM BR OVC003=



Latest METAR

853
SAUS80 KWBC 011500 RRG
MTRSAV
METAR KSAV 011453Z 35007KT 2 1/2SM BR OVC003 06/04 A3051 RMK AO2 SFC VIS
3 DZB05E25 SLP330 P0000 60001 T00610044 53004


USA.gov is the U.S. government's official web portal to all federal, state and local government web resources and services.